Time;durP1;ratioP1;P1;durP2;ratioP2;P2;SDS_P1;SDS_P2;PMS_P1;PMS_P2;Temp;Humidity;BMP_temperature;BMP_pressure;BME280_temperature;BME280_humidity;BME280_pressure;Samples;Min_cycle;Max_cycle;Signal;HPM_P1;HPM_P2
2021/01/09 00:00:46;;;;;;;62.73;15.27;;;1.10;99.90;;;;;;4995563;28;20263;-69
2021/01/09 00:03:12;;;;;;;48.17;14.17;;;1.10;99.90;;;;;;4995329;28;20383;-69
2021/01/09 00:05:39;;;;;;;38.83;13.07;;;1.10;99.90;;;;;;4999805;28;20777;-69
2021/01/09 00:08:06;;;;;;;37.20;12.30;;;1.10;99.90;;;;;;5014427;28;20242;-69
2021/01/09 00:10:33;;;;;;;40.70;12.17;;;1.20;99.90;;;;;;5014853;28;20241;-69
2021/01/09 00:12:59;;;;;;;59.27;14.40;;;1.20;99.90;;;;;;5015121;28;20207;-69
2021/01/09 00:15:26;;;;;;;50.27;14.93;;;1.20;99.90;;;;;;4998491;28;20756;-69
2021/01/09 00:17:53;;;;;;;50.80;13.57;;;1.30;99.90;;;;;;4994677;28;20208;-69
2021/01/09 00:20:21;;;;;;;75.07;17.33;;;1.30;99.90;;;;;;4974981;28;20567;-69
2021/01/09 00:22:48;;;;;;;63.73;16.33;;;1.30;99.90;;;;;;4975163;28;20209;-69
2021/01/09 00:25:16;;;;;;;55.80;15.87;;;1.30;99.90;;;;;;4978808;28;20249;-69
2021/01/09 00:27:43;;;;;;;49.70;15.47;;;1.20;99.90;;;;;;5044287;28;20213;-69
2021/01/09 00:30:11;;;;;;;39.50;13.77;;;1.30;99.90;;;;;;5088150;28;20208;-69
2021/01/09 00:32:37;;;;;;;42.57;13.23;;;1.30;99.90;;;;;;5094370;28;20196;-69
2021/01/09 00:35:04;;;;;;;31.47;12.73;;;1.30;99.90;;;;;;5092975;28;20228;-69
2021/01/09 00:37:31;;;;;;;43.40;15.17;;;1.30;99.90;;;;;;5093636;28;20238;-69
2021/01/09 00:39:58;;;;;;;41.67;14.27;;;1.20;99.90;;;;;;5093824;28;20511;-69
2021/01/09 00:42:26;;;;;;;66.67;18.80;;;1.20;99.90;;;;;;5093956;28;20204;-69
2021/01/09 00:44:52;;;;;;;62.37;18.87;;;1.20;99.90;;;;;;5093854;28;20228;-69
2021/01/09 00:47:19;;;;;;;56.43;18.37;;;1.20;99.90;;;;;;5093645;28;20238;-69
2021/01/09 00:49:45;;;;;;;51.50;16.57;;;1.20;99.90;;;;;;5093908;28;20246;-69
2021/01/09 00:52:12;;;;;;;42.60;14.03;;;1.20;99.90;;;;;;5093758;28;20204;-69
2021/01/09 00:54:38;;;;;;;38.80;14.07;;;1.20;99.90;;;;;;5093526;28;20192;-69
2021/01/09 00:57:05;;;;;;;35.33;12.97;;;1.20;99.90;;;;;;5093924;28;20283;-69
2021/01/09 00:59:33;;;;;;;39.13;13.47;;;1.20;99.90;;;;;;5095728;28;20673;-69
2021/01/09 01:01:59;;;;;;;39.10;13.87;;;1.30;99.90;;;;;;5093662;28;20227;-70
2021/01/09 01:04:26;;;;;;;37.40;13.63;;;1.30;99.90;;;;;;5093732;28;20208;-69
2021/01/09 01:06:52;;;;;;;38.10;14.17;;;1.30;99.90;;;;;;5093483;28;20205;-70
2021/01/09 01:09:19;;;;;;;39.80;14.17;;;1.30;99.90;;;;;;5093337;28;20602;-70
2021/01/09 01:11:45;;;;;;;45.10;13.57;;;1.30;99.90;;;;;;5093374;28;20287;-69
2021/01/09 01:14:12;;;;;;;38.73;14.73;;;1.40;99.90;;;;;;5093313;28;20231;-70
2021/01/09 01:16:43;;;;;;;41.60;15.17;;;1.40;99.90;;;;;;5093144;28;20201;-70
2021/01/09 01:19:11;;;;;;;36.03;13.83;;;1.40;99.90;;;;;;5093215;28;20220;-70
2021/01/09 01:21:38;;;;;;;35.57;13.13;;;1.40;99.90;;;;;;5092942;28;20238;-70
2021/01/09 01:24:05;;;;;;;31.73;12.20;;;1.50;99.90;;;;;;5093562;28;20258;-70
2021/01/09 01:26:31;;;;;;;28.40;11.80;;;1.50;99.90;;;;;;5072832;28;20314;-70
2021/01/09 01:28:59;;;;;;;30.97;12.80;;;1.50;99.90;;;;;;5072853;28;20248;-70
2021/01/09 01:31:27;;;;;;;25.30;11.23;;;1.50;99.90;;;;;;5032929;28;20222;-70
2021/01/09 01:33:54;;;;;;;28.00;11.03;;;1.50;99.90;;;;;;5050337;28;20205;-70
2021/01/09 01:36:21;;;;;;;23.47;9.90;;;1.50;99.90;;;;;;5052797;28;20202;-69
2021/01/09 01:38:47;;;;;;;24.63;10.70;;;1.50;99.90;;;;;;5052388;28;20224;-70
2021/01/09 01:41:14;;;;;;;28.60;12.10;;;1.50;99.90;;;;;;5035107;28;20249;-70
2021/01/09 01:43:40;;;;;;;30.50;11.63;;;1.50;99.90;;;;;;5032767;28;20568;-70
2021/01/09 01:46:09;;;;;;;24.63;10.23;;;1.50;99.90;;;;;;5032775;28;20202;-70
2021/01/09 01:48:37;;;;;;;23.90;10.40;;;1.50;99.90;;;;;;5032475;28;20934;-70
2021/01/09 01:51:05;;;;;;;31.80;11.50;;;1.50;99.90;;;;;;5032612;28;20225;-69
2021/01/09 01:53:33;;;;;;;29.90;11.23;;;1.50;99.90;;;;;;5032341;28;20557;-70
2021/01/09 01:55:59;;;;;;;33.27;12.53;;;1.50;99.90;;;;;;5032215;28;20217;-70
2021/01/09 01:58:26;;;;;;;31.40;10.73;;;1.40;99.90;;;;;;5049788;28;20225;-69
2021/01/09 02:00:53;;;;;;;31.93;12.03;;;1.50;99.90;;;;;;5052294;28;20221;-70
2021/01/09 02:03:21;;;;;;;28.97;10.97;;;1.40;99.90;;;;;;5054120;28;20227;-69
2021/01/09 02:05:56;;;;;;;28.47;10.40;;;1.40;99.90;;;;;;5092853;28;20223;-69
2021/01/09 02:08:28;;;;;;;28.53;11.57;;;1.40;99.90;;;;;;5093261;28;20215;-70
2021/01/09 02:10:58;;;;;;;24.43;10.47;;;1.50;99.90;;;;;;5092278;28;20212;-69
2021/01/09 02:13:33;;;;;;;22.00;9.00;;;1.40;99.90;;;;;;5092264;28;20632;-70
2021/01/09 02:16:00;;;;;;;23.27;9.30;;;1.40;99.90;;;;;;5042415;28;20204;-70
2021/01/09 02:18:28;;;;;;;23.70;9.87;;;1.40;99.90;;;;;;5092464;28;20201;-70
2021/01/09 02:21:05;;;;;;;25.47;9.77;;;1.40;99.90;;;;;;5071922;28;20583;-69
2021/01/09 02:23:33;;;;;;;25.23;9.80;;;1.40;99.90;;;;;;5072028;28;20598;-69
2021/01/09 02:26:00;;;;;;;30.13;10.37;;;1.30;99.90;;;;;;5071863;28;20216;-70
2021/01/09 02:28:27;;;;;;;23.90;9.07;;;1.30;99.90;;;;;;5051534;28;20197;-70
2021/01/09 02:30:56;;;;;;;21.33;8.70;;;1.30;99.90;;;;;;5051832;28;20210;-69
2021/01/09 02:33:24;;;;;;;20.60;9.43;;;1.30;99.90;;;;;;5051716;28;20205;-69
2021/01/09 02:35:53;;;;;;;23.10;9.03;;;1.30;99.90;;;;;;5051443;28;20229;-69
2021/01/09 02:38:19;;;;;;;16.63;8.03;;;1.30;99.90;;;;;;5071765;28;20217;-70
2021/01/09 02:40:46;;;;;;;18.30;7.87;;;1.30;99.90;;;;;;5051450;28;20252;-70
2021/01/09 02:43:14;;;;;;;19.40;8.10;;;1.20;99.90;;;;;;5051582;28;20202;-70
2021/01/09 02:45:41;;;;;;;16.53;7.40;;;1.20;99.90;;;;;;5051790;28;20556;-70
2021/01/09 02:48:08;;;;;;;19.37;7.73;;;1.20;99.90;;;;;;5051396;28;20206;-70
2021/01/09 02:50:35;;;;;;;15.60;7.33;;;1.10;99.90;;;;;;5051748;28;20208;-70
2021/01/09 02:53:01;;;;;;;17.13;7.97;;;1.00;99.90;;;;;;5051268;28;20564;-70
2021/01/09 02:55:28;;;;;;;18.10;7.97;;;1.10;99.90;;;;;;5051384;28;20297;-70
2021/01/09 02:57:55;;;;;;;19.20;8.53;;;1.00;99.90;;;;;;5057402;28;20287;-69
2021/01/09 03:00:22;;;;;;;20.67;9.00;;;1.00;99.90;;;;;;5071125;28;20221;-70
2021/01/09 03:02:49;;;;;;;19.17;8.97;;;1.00;99.90;;;;;;5071458;28;20205;-69
2021/01/09 03:05:16;;;;;;;24.60;9.57;;;1.00;99.90;;;;;;5071363;28;20200;-70
2021/01/09 03:07:42;;;;;;;20.13;9.33;;;1.00;99.90;;;;;;5071696;28;20215;-70
2021/01/09 03:10:09;;;;;;;23.63;10.00;;;1.10;99.90;;;;;;5071762;28;20209;-70
2021/01/09 03:12:35;;;;;;;22.57;9.53;;;1.00;99.90;;;;;;5065706;28;20212;-69
2021/01/09 03:15:04;;;;;;;23.17;8.37;;;1.00;99.90;;;;;;5072004;28;20236;-69
2021/01/09 03:17:30;;;;;;;22.73;8.30;;;1.00;99.90;;;;;;5071406;28;20197;-69
2021/01/09 03:19:57;;;;;;;25.20;9.00;;;1.00;99.90;;;;;;5071083;28;20682;-69
2021/01/09 03:22:23;;;;;;;26.77;10.67;;;1.00;99.90;;;;;;5051037;28;20305;-69
2021/01/09 03:24:50;;;;;;;25.10;9.27;;;1.00;99.90;;;;;;5051534;28;20205;-69
2021/01/09 03:27:16;;;;;;;21.73;8.70;;;1.10;99.90;;;;;;5051720;28;20288;-69
2021/01/09 03:29:43;;;;;;;25.57;9.70;;;1.10;99.90;;;;;;5051332;28;20240;-69
2021/01/09 03:32:10;;;;;;;28.97;11.40;;;1.20;99.90;;;;;;5011510;28;20226;-70
2021/01/09 03:34:37;;;;;;;37.87;14.23;;;1.20;99.90;;;;;;5010994;28;20588;-70
2021/01/09 03:37:03;;;;;;;74.60;25.33;;;1.20;99.90;;;;;;5011354;28;20261;-70
2021/01/09 03:39:30;;;;;;;98.93;30.20;;;1.20;99.90;;;;;;5011379;28;20298;-69
2021/01/09 03:41:56;;;;;;;114.63;35.33;;;1.20;99.90;;;;;;5011548;28;20207;-70
2021/01/09 03:44:23;;;;;;;97.27;30.57;;;1.20;99.90;;;;;;5052877;28;20251;-68
2021/01/09 03:46:49;;;;;;;97.87;30.33;;;1.20;99.90;;;;;;5056696;28;20233;-69
2021/01/09 03:49:17;;;;;;;76.97;26.50;;;1.20;99.90;;;;;;5051851;28;20360;-69
2021/01/09 03:51:43;;;;;;;66.03;22.07;;;1.30;99.90;;;;;;5051242;28;20209;-68
2021/01/09 03:54:10;;;;;;;51.60;18.00;;;1.30;99.90;;;;;;5051099;28;20212;-68
2021/01/09 03:56:36;;;;;;;38.50;15.07;;;1.30;99.90;;;;;;5050555;28;20213;-68
2021/01/09 03:59:03;;;;;;;44.43;16.00;;;1.30;99.90;;;;;;5051410;28;20201;-69
2021/01/09 04:01:29;;;;;;;34.07;13.80;;;1.40;99.90;;;;;;5018306;28;20218;-69
2021/01/09 04:03:56;;;;;;;33.83;13.73;;;1.40;99.90;;;;;;5027314;28;20217;-69
2021/01/09 04:06:23;;;;;;;37.30;13.13;;;1.40;99.90;;;;;;5030988;28;20217;-69
2021/01/09 04:08:50;;;;;;;31.43;13.07;;;1.50;99.90;;;;;;5031196;28;20198;-69
2021/01/09 04:11:16;;;;;;;26.90;11.20;;;1.40;99.90;;;;;;5032559;28;20552;-69
2021/01/09 04:13:43;;;;;;;30.93;12.33;;;1.50;99.90;;;;;;5034389;28;20253;-69
2021/01/09 04:16:09;;;;;;;22.20;10.03;;;1.50;99.90;;;;;;5083574;28;20232;-69
2021/01/09 04:18:36;;;;;;;22.27;9.27;;;1.50;99.90;;;;;;5034191;28;20229;-69
2021/01/09 04:21:03;;;;;;;25.13;10.77;;;1.50;99.90;;;;;;5034326;28;20222;-69
2021/01/09 04:23:30;;;;;;;24.43;10.90;;;1.50;99.90;;;;;;5034151;28;20206;-69
2021/01/09 04:25:57;;;;;;;23.70;9.97;;;1.60;99.90;;;;;;5034161;28;20611;-69
2021/01/09 04:28:23;;;;;;;19.37;9.10;;;1.60;99.90;;;;;;5050140;28;20206;-69
2021/01/09 04:30:50;;;;;;;21.57;9.10;;;1.60;99.90;;;;;;5053738;28;20717;-69
2021/01/09 04:33:16;;;;;;;20.07;9.43;;;1.60;99.90;;;;;;5014363;28;20216;-69
2021/01/09 04:35:42;;;;;;;23.00;9.80;;;1.60;99.90;;;;;;5013793;28;20708;-69
2021/01/09 04:38:09;;;;;;;19.33;9.00;;;1.60;99.90;;;;;;4994176;28;20698;-69
2021/01/09 04:40:36;;;;;;;20.00;9.17;;;1.70;99.90;;;;;;4974659;28;20254;-69
2021/01/09 04:43:03;;;;;;;21.40;9.53;;;1.70;99.90;;;;;;4974817;28;20212;-69
2021/01/09 04:45:30;;;;;;;23.83;9.63;;;1.70;99.90;;;;;;4974658;28;20204;-69
2021/01/09 04:47:59;;;;;;;17.37;8.83;;;1.80;99.90;;;;;;4955176;29;20201;-69
2021/01/09 04:50:26;;;;;;;19.83;9.43;;;1.80;99.90;;;;;;4955854;29;20292;-69
2021/01/09 04:52:53;;;;;;;17.73;8.50;;;1.80;99.90;;;;;;4955200;28;20209;-69
2021/01/09 04:55:20;;;;;;;25.70;8.77;;;1.70;99.90;;;;;;4962999;28;20196;-69
2021/01/09 04:57:50;;;;;;;23.40;9.70;;;1.80;99.90;;;;;;4994407;28;20737;-69
2021/01/09 05:00:19;;;;;;;23.53;9.60;;;1.80;99.90;;;;;;4994434;28;20219;-69
2021/01/09 05:02:45;;;;;;;23.87;9.83;;;1.80;99.90;;;;;;4977114;28;20659;-69
2021/01/09 05:05:12;;;;;;;28.50;11.13;;;1.80;99.90;;;;;;5009261;28;20285;-69
2021/01/09 05:07:39;;;;;;;20.43;10.13;;;1.80;99.90;;;;;;5013545;28;20337;-69
2021/01/09 05:10:07;;;;;;;22.90;8.87;;;1.80;99.90;;;;;;5048585;28;20205;-69
2021/01/09 05:12:34;;;;;;;23.97;9.80;;;1.80;99.90;;;;;;5053317;28;20275;-69
2021/01/09 05:15:03;;;;;;;20.70;9.47;;;1.90;99.90;;;;;;5053139;28;20247;-69
2021/01/09 05:17:30;;;;;;;21.13;9.20;;;1.80;99.90;;;;;;5013289;28;20553;-69
2021/01/09 05:19:57;;;;;;;18.03;8.93;;;1.80;99.90;;;;;;5049356;28;20217;-69
2021/01/09 05:22:24;;;;;;;21.13;9.43;;;1.80;99.90;;;;;;5052433;28;20256;-69
2021/01/09 05:24:52;;;;;;;19.73;8.77;;;1.80;99.90;;;;;;5053113;28;20288;-69
2021/01/09 05:27:20;;;;;;;19.00;9.43;;;1.80;99.90;;;;;;5052760;28;20251;-69
2021/01/09 05:29:53;;;;;;;18.00;9.30;;;1.70;99.90;;;;;;5052783;28;20201;-68
2021/01/09 05:32:21;;;;;;;17.73;8.30;;;1.60;99.90;;;;;;5032907;28;20390;-69
2021/01/09 05:34:49;;;;;;;20.40;9.07;;;1.50;99.90;;;;;;5032933;28;20222;-69
2021/01/09 05:37:17;;;;;;;19.00;8.90;;;1.30;99.90;;;;;;5033149;28;20241;-69
2021/01/09 05:39:55;;;;;;;18.40;8.17;;;1.20;99.90;;;;;;5032895;28;20214;-69
2021/01/09 05:42:23;;;;;;;14.63;7.77;;;1.10;99.90;;;;;;5032675;28;20541;-69
2021/01/09 05:44:54;;;;;;;16.97;7.23;;;1.10;99.90;;;;;;5032388;28;20222;-69
2021/01/09 05:47:23;;;;;;;15.27;6.90;;;1.00;99.90;;;;;;5034289;28;20203;-69
2021/01/09 05:49:51;;;;;;;13.27;7.17;;;1.00;99.90;;;;;;5092826;28;20220;-69
2021/01/09 05:52:18;;;;;;;12.13;6.50;;;1.20;99.90;;;;;;5092539;28;20204;-69
2021/01/09 05:54:45;;;;;;;10.07;5.60;;;0.90;99.90;;;;;;5092443;28;20196;-69
2021/01/09 05:57:17;;;;;;;11.73;6.13;;;0.80;99.90;;;;;;5093085;28;20197;-69
2021/01/09 05:59:44;;;;;;;13.07;5.87;;;0.80;99.90;;;;;;5092440;28;20224;-69
2021/01/09 06:02:11;;;;;;;12.30;5.90;;;0.70;99.90;;;;;;5092174;28;20199;-69
2021/01/09 06:04:43;;;;;;;12.13;6.20;;;0.60;99.90;;;;;;5092361;28;20211;-69
2021/01/09 06:07:14;;;;;;;11.57;5.70;;;0.50;99.90;;;;;;5092790;28;20172;-69
2021/01/09 06:09:47;;;;;;;16.30;6.73;;;0.40;99.90;;;;;;5092857;28;20215;-69
2021/01/09 06:12:14;;;;;;;12.23;5.80;;;0.40;99.90;;;;;;5092431;28;20636;-69
2021/01/09 06:14:43;;;;;;;12.17;5.87;;;0.30;99.90;;;;;;5092080;28;20293;-69
2021/01/09 06:17:11;;;;;;;12.60;6.30;;;0.30;99.90;;;;;;5092071;28;20196;-69
2021/01/09 06:19:38;;;;;;;12.63;6.93;;;0.30;99.90;;;;;;5091941;28;20311;-69
2021/01/09 06:22:07;;;;;;;16.03;6.87;;;0.20;99.90;;;;;;5091938;28;20708;-69
2021/01/09 06:24:35;;;;;;;12.67;6.70;;;0.20;99.90;;;;;;5091906;28;20282;-69
2021/01/09 06:27:01;;;;;;;12.20;6.03;;;0.20;99.90;;;;;;5094253;28;20196;-69
2021/01/09 06:29:29;;;;;;;12.93;6.33;;;0.20;99.90;;;;;;5091834;28;20236;-69
2021/01/09 06:31:57;;;;;;;14.87;6.67;;;0.30;99.90;;;;;;5091986;28;20212;-69
2021/01/09 06:34:26;;;;;;;13.83;6.83;;;0.30;99.90;;;;;;5091075;28;20232;-69
2021/01/09 06:36:57;;;;;;;10.53;5.27;;;0.40;99.90;;;;;;5092298;28;20235;-69
2021/01/09 06:39:26;;;;;;;11.00;5.87;;;0.30;99.90;;;;;;5051841;28;20210;-69
2021/01/09 06:41:56;;;;;;;11.63;6.37;;;0.30;99.90;;;;;;5051522;28;20260;-69
2021/01/09 06:44:24;;;;;;;10.63;5.90;;;0.30;99.90;;;;;;5051312;28;20256;-69
2021/01/09 06:46:51;;;;;;;14.23;7.17;;;0.30;99.90;;;;;;5051247;28;20193;-69
2021/01/09 06:49:19;;;;;;;15.13;7.20;;;0.20;99.90;;;;;;5011410;28;20199;-69
2021/01/09 06:52:01;;;;;;;13.90;6.70;;;0.20;99.90;;;;;;5012193;28;20677;-69
2021/01/09 06:54:43;;;;;;;12.57;6.37;;;0.30;99.90;;;;;;5012209;28;20669;-69
2021/01/09 06:57:20;;;;;;;16.10;7.07;;;0.30;99.90;;;;;;4991933;28;20211;-69
2021/01/09 06:59:49;;;;;;;32.57;10.53;;;0.30;99.90;;;;;;4992126;28;20254;-69
2021/01/09 07:02:23;;;;;;;54.77;13.80;;;0.40;99.90;;;;;;5011517;28;20238;-69
2021/01/09 07:05:01;;;;;;;40.07;12.67;;;0.40;99.90;;;;;;5011468;28;20237;-69
2021/01/09 07:07:34;;;;;;;41.70;14.10;;;0.50;99.90;;;;;;5011373;28;20203;-68
2021/01/09 07:10:10;;;;;;;42.17;14.43;;;0.50;99.90;;;;;;5018296;28;20205;-69
2021/01/09 07:12:39;;;;;;;46.53;15.77;;;0.60;99.90;;;;;;5031384;28;20206;-69
2021/01/09 07:15:07;;;;;;;43.07;15.03;;;0.70;99.90;;;;;;5047468;28;20565;-69
2021/01/09 07:17:36;;;;;;;38.33;14.83;;;0.80;99.90;;;;;;5051107;28;20210;-69
2021/01/09 07:20:07;;;;;;;36.80;15.00;;;0.80;99.90;;;;;;5058852;28;20228;-69
2021/01/09 07:22:38;;;;;;;38.43;16.17;;;0.90;99.90;;;;;;5071098;28;20215;-70
2021/01/09 07:25:08;;;;;;;43.90;17.80;;;1.00;99.90;;;;;;5071090;28;20663;-70
2021/01/09 07:27:44;;;;;;;40.67;15.80;;;1.00;99.90;;;;;;5070913;28;20578;-68
2021/01/09 07:30:16;;;;;;;41.43;15.57;;;1.10;99.90;;;;;;5071072;28;20325;-68
2021/01/09 07:32:47;;;;;;;36.50;12.70;;;1.10;99.90;;;;;;5071689;28;20308;-69
2021/01/09 07:35:20;;;;;;;41.10;14.30;;;1.20;99.90;;;;;;5086284;28;20232;-69
2021/01/09 07:37:48;;;;;;;53.13;16.50;;;1.30;99.90;;;;;;5091630;28;20208;-69
2021/01/09 07:40:18;;;;;;;42.30;14.90;;;1.30;99.90;;;;;;5091024;28;20307;-69
2021/01/09 07:42:45;;;;;;;47.83;15.60;;;1.40;99.90;;;;;;5095335;28;20230;-69
2021/01/09 07:45:15;;;;;;;44.00;15.60;;;1.50;99.90;;;;;;5097736;28;20570;-68
2021/01/09 07:47:43;;;;;;;36.67;15.20;;;1.60;99.90;;;;;;5096285;28;20658;-68
2021/01/09 07:50:12;;;;;;;42.97;16.23;;;1.60;99.90;;;;;;5074831;28;20224;-69
2021/01/09 07:52:39;;;;;;;42.20;16.43;;;1.60;99.90;;;;;;5074699;28;20197;-69
2021/01/09 07:55:08;;;;;;;37.37;14.93;;;1.70;99.90;;;;;;5075039;28;20201;-69
2021/01/09 07:57:38;;;;;;;40.47;16.33;;;1.80;99.90;;;;;;5054431;28;20202;-69
2021/01/09 08:00:20;;;;;;;44.73;15.93;;;1.80;99.90;;;;;;5034500;28;20733;-69
2021/01/09 08:02:47;;;;;;;52.27;17.90;;;1.90;99.90;;;;;;5032773;28;20202;-69
2021/01/09 08:05:20;;;;;;;87.67;21.87;;;2.00;99.90;;;;;;4995785;28;20199;-69
2021/01/09 08:07:49;;;;;;;85.97;22.20;;;2.00;99.90;;;;;;4995298;28;20263;-69
2021/01/09 08:10:24;;;;;;;88.37;23.83;;;2.10;99.90;;;;;;4995169;28;20319;-69
2021/01/09 08:12:57;;;;;;;76.60;23.73;;;2.20;99.90;;;;;;4995078;28;20206;-69
2021/01/09 08:15:24;;;;;;;77.77;22.50;;;2.20;99.90;;;;;;4994940;28;20269;-68
2021/01/09 08:17:51;;;;;;;62.10;21.57;;;2.30;99.90;;;;;;4995364;28;20677;-69
2021/01/09 08:20:18;;;;;;;58.47;20.97;;;2.40;99.90;;;;;;5014700;28;20227;-68
2021/01/09 08:22:53;;;;;;;50.77;18.83;;;2.50;99.90;;;;;;5014237;28;20207;-68
2021/01/09 08:25:21;;;;;;;52.30;19.37;;;2.60;99.90;;;;;;5014417;28;20203;-68
2021/01/09 08:27:50;;;;;;;44.63;18.07;;;2.60;99.90;;;;;;5030486;28;20298;-69
2021/01/09 08:30:20;;;;;;;47.53;18.70;;;2.70;99.90;;;;;;5014232;28;20207;-69
2021/01/09 08:32:46;;;;;;;41.90;16.63;;;2.80;99.90;;;;;;5014410;28;20203;-69
2021/01/09 08:35:14;;;;;;;41.97;17.83;;;2.90;99.90;;;;;;5016912;28;20237;-69
2021/01/09 08:37:41;;;;;;;43.13;17.27;;;3.00;99.90;;;;;;5054066;28;20198;-70
2021/01/09 08:40:19;;;;;;;46.53;18.23;;;3.00;99.90;;;;;;5053888;28;20337;-69
2021/01/09 08:42:59;;;;;;;41.93;17.50;;;3.10;99.90;;;;;;5054028;28;20202;-69
2021/01/09 08:45:41;;;;;;;38.77;16.67;;;3.10;99.90;;;;;;5034282;28;20209;-69
2021/01/09 08:48:13;;;;;;;37.07;16.30;;;3.20;99.90;;;;;;5034419;28;20206;-71
2021/01/09 08:50:52;;;;;;;41.73;16.63;;;3.20;99.90;;;;;;5034103;28;20198;-71
2021/01/09 08:53:20;;;;;;;38.50;16.30;;;3.20;99.90;;;;;;5027645;28;20202;-71
2021/01/09 08:55:46;;;;;;;34.07;14.23;;;3.20;99.90;;;;;;5014005;28;20230;-70
2021/01/09 08:58:15;;;;;;;34.90;14.83;;;3.10;99.90;;;;;;5040618;28;20676;-69
2021/01/09 09:00:43;;;;;;;32.87;13.83;;;3.10;99.90;;;;;;5033365;28;20253;-70
2021/01/09 09:03:12;;;;;;;32.93;14.13;;;3.10;99.90;;;;;;5033823;28;20222;-70
2021/01/09 09:05:40;;;;;;;29.90;12.97;;;3.10;99.90;;;;;;5006805;28;20249;-70
2021/01/09 09:08:10;;;;;;;35.27;15.20;;;3.20;99.90;;;;;;5013697;28;20258;-70
2021/01/09 09:10:39;;;;;;;32.23;13.87;;;3.10;99.90;;;;;;4955362;29;20585;-70
2021/01/09 09:13:20;;;;;;;29.10;13.37;;;3.10;99.90;;;;;;4955308;29;20707;-70
2021/01/09 09:15:48;;;;;;;36.07;15.13;;;3.10;99.90;;;;;;4955644;29;20738;-70
2021/01/09 09:18:15;;;;;;;37.63;15.07;;;3.10;99.90;;;;;;4954993;29;20718;-70
2021/01/09 09:20:46;;;;;;;30.90;14.43;;;3.10;99.90;;;;;;4953066;28;20229;-70
2021/01/09 09:23:22;;;;;;;38.57;15.07;;;3.10;99.90;;;;;;4967621;28;20204;-69
2021/01/09 09:26:06;;;;;;;33.40;14.33;;;3.20;99.90;;;;;;4955459;29;20209;-70
2021/01/09 09:28:52;;;;;;;33.30;13.70;;;3.20;99.90;;;;;;4935652;29;20269;-70
2021/01/09 09:31:22;;;;;;;33.43;14.77;;;3.20;99.90;;;;;;4948223;28;20215;-70
2021/01/09 09:34:03;;;;;;;33.27;14.07;;;3.10;99.90;;;;;;4974548;28;20220;-70
2021/01/09 09:36:32;;;;;;;34.77;14.73;;;3.20;99.90;;;;;;4973864;28;20240;-70
2021/01/09 09:39:10;;;;;;;32.80;14.53;;;3.10;99.90;;;;;;4974850;28;20647;-70
2021/01/09 09:41:48;;;;;;;32.80;14.33;;;3.10;99.90;;;;;;4983961;28;20227;-70
2021/01/09 09:44:14;;;;;;;32.47;14.13;;;3.00;99.90;;;;;;4993440;28;20203;-70
2021/01/09 09:46:42;;;;;;;38.37;14.60;;;3.00;99.90;;;;;;4993309;28;20287;-70
2021/01/09 09:49:09;;;;;;;36.50;15.70;;;3.00;99.90;;;;;;4993261;28;20561;-70
2021/01/09 09:51:36;;;;;;;38.13;16.90;;;3.00;99.90;;;;;;4993689;28;20208;-70
2021/01/09 09:54:04;;;;;;;39.83;17.40;;;3.00;99.90;;;;;;4990536;28;20230;-69
2021/01/09 09:56:36;;;;;;;40.23;17.20;;;3.10;99.90;;;;;;5014325;28;20208;-69
2021/01/09 09:59:04;;;;;;;42.00;17.40;;;3.10;99.90;;;;;;5058689;28;20235;-70
2021/01/09 10:01:30;;;;;;;48.47;20.00;;;3.20;99.90;;;;;;5072323;28;20217;-71
2021/01/09 10:03:58;;;;;;;46.23;19.70;;;3.30;99.90;;;;;;5052737;28;20702;-70
2021/01/09 10:06:34;;;;;;;47.37;19.50;;;3.30;99.90;;;;;;5051964;28;20206;-70
2021/01/09 10:09:13;;;;;;;48.97;20.30;;;3.40;99.90;;;;;;4992802;28;20217;-70
2021/01/09 10:11:41;;;;;;;45.30;19.30;;;3.40;99.90;;;;;;4992825;28;20203;-70
2021/01/09 10:14:08;;;;;;;45.47;19.40;;;3.50;99.90;;;;;;4993295;28;20670;-71
2021/01/09 10:16:35;;;;;;;51.47;20.33;;;3.40;99.90;;;;;;4992973;28;20227;-71
2021/01/09 10:19:03;;;;;;;53.20;21.67;;;3.40;99.90;;;;;;4992866;28;20648;-70
2021/01/09 10:21:30;;;;;;;52.17;21.13;;;3.40;99.90;;;;;;4992807;28;20258;-70
2021/01/09 10:23:57;;;;;;;48.93;19.70;;;3.30;99.90;;;;;;4993543;28;20234;-70
2021/01/09 10:26:27;;;;;;;46.63;19.50;;;3.30;99.90;;;;;;5012923;28;20341;-69
2021/01/09 10:28:55;;;;;;;48.80;18.97;;;3.20;99.90;;;;;;5032060;28;20325;-69
2021/01/09 10:31:32;;;;;;;42.23;17.83;;;3.10;99.90;;;;;;5032115;28;20628;-70
2021/01/09 10:33:59;;;;;;;42.30;17.60;;;3.10;99.90;;;;;;5031852;28;20198;-70
2021/01/09 10:36:28;;;;;;;41.07;17.33;;;3.10;99.90;;;;;;5031699;28;20317;-70
2021/01/09 10:38:56;;;;;;;43.90;17.73;;;3.10;99.90;;;;;;5035129;28;20205;-70
2021/01/09 10:41:23;;;;;;;40.37;18.03;;;3.00;99.90;;;;;;5091921;28;20616;-70
2021/01/09 10:43:50;;;;;;;39.40;16.37;;;3.00;99.90;;;;;;5081759;28;20512;-70
2021/01/09 10:46:21;;;;;;;41.77;16.60;;;3.20;99.90;;;;;;5051622;28;20296;-70
2021/01/09 10:48:48;;;;;;;40.93;16.97;;;3.10;99.90;;;;;;5052320;28;20224;-70
2021/01/09 10:51:15;;;;;;;40.70;16.47;;;3.10;99.90;;;;;;5052035;28;20212;-70
2021/01/09 10:53:43;;;;;;;36.20;16.83;;;3.10;99.90;;;;;;5032800;28;20202;-71
2021/01/09 10:56:10;;;;;;;33.97;16.03;;;3.10;99.90;;;;;;5032678;28;20289;-71
2021/01/09 10:58:37;;;;;;;35.33;16.10;;;3.10;99.90;;;;;;5013674;28;20276;-70
2021/01/09 11:01:03;;;;;;;35.50;15.57;;;3.10;99.90;;;;;;5012235;28;20273;-70
2021/01/09 11:03:30;;;;;;;36.63;16.33;;;3.20;99.90;;;;;;4992566;28;20218;-70
2021/01/09 11:05:57;;;;;;;34.97;15.73;;;3.20;99.90;;;;;;4992518;28;20208;-70
2021/01/09 11:08:24;;;;;;;31.90;15.43;;;3.20;99.90;;;;;;4992045;28;20247;-70
2021/01/09 11:10:51;;;;;;;39.10;17.27;;;3.20;99.90;;;;;;4992036;28;20199;-70
2021/01/09 11:13:18;;;;;;;34.43;16.70;;;3.30;99.90;;;;;;5011575;28;20206;-70
2021/01/09 11:15:45;;;;;;;34.53;15.63;;;3.20;99.90;;;;;;5029009;28;20783;-70
2021/01/09 11:18:12;;;;;;;32.77;14.73;;;3.20;99.90;;;;;;5031587;28;20297;-70
2021/01/09 11:20:39;;;;;;;27.77;13.87;;;3.20;99.90;;;;;;5033787;28;20229;-70
2021/01/09 11:23:06;;;;;;;34.23;16.00;;;3.20;99.90;;;;;;5035404;28;20275;-70
2021/01/09 11:25:32;;;;;;;32.10;15.07;;;3.20;99.90;;;;;;5052281;28;20217;-71
2021/01/09 11:28:01;;;;;;;33.80;15.43;;;3.30;99.90;;;;;;5055252;28;20287;-70
2021/01/09 11:30:28;;;;;;;36.23;16.77;;;3.30;99.90;;;;;;5055515;28;20202;-70
2021/01/09 11:32:54;;;;;;;33.90;15.50;;;3.30;99.90;;;;;;5055079;28;20209;-69
2021/01/09 11:35:21;;;;;;;37.77;15.97;;;3.30;99.90;;;;;;5059238;28;20233;-70
2021/01/09 11:37:47;;;;;;;29.20;14.57;;;3.40;99.90;;;;;;5075778;28;20300;-70
2021/01/09 11:40:14;;;;;;;29.50;14.23;;;3.40;99.90;;;;;;5074850;28;20236;-70
2021/01/09 11:42:42;;;;;;;29.20;13.57;;;3.50;99.90;;;;;;5075067;28;20215;-69
2021/01/09 11:45:11;;;;;;;27.43;13.67;;;3.40;99.90;;;;;;5058092;28;20630;-70
2021/01/09 11:47:37;;;;;;;31.40;14.90;;;3.40;99.90;;;;;;5089500;28;20200;-70
2021/01/09 11:50:04;;;;;;;30.07;13.27;;;3.40;99.90;;;;;;5095366;28;20200;-70
2021/01/09 11:52:31;;;;;;;34.70;15.10;;;3.50;99.90;;;;;;5077956;28;20205;-70
2021/01/09 11:54:58;;;;;;;33.27;15.23;;;3.50;99.90;;;;;;5094496;28;20654;-70
2021/01/09 11:57:26;;;;;;;38.57;16.17;;;3.50;99.90;;;;;;5097548;28;20200;-70
2021/01/09 11:59:52;;;;;;;35.83;15.57;;;3.50;99.90;;;;;;5097365;28;20370;-70
2021/01/09 12:02:20;;;;;;;36.80;16.27;;;3.50;99.90;;;;;;5096832;28;20572;-70
2021/01/09 12:04:46;;;;;;;26.30;13.57;;;3.60;99.90;;;;;;5094706;28;20239;-70
2021/01/09 12:07:13;;;;;;;32.03;14.47;;;3.50;99.90;;;;;;5094773;28;20592;-70
2021/01/09 12:09:39;;;;;;;30.13;13.53;;;3.50;99.90;;;;;;5094697;28;20208;-70
2021/01/09 12:12:07;;;;;;;33.27;13.77;;;3.50;99.90;;;;;;5094440;28;20595;-69
2021/01/09 12:14:33;;;;;;;27.87;12.77;;;3.40;99.90;;;;;;5034496;28;20723;-71
2021/01/09 12:17:00;;;;;;;22.50;11.80;;;3.40;99.90;;;;;;5014290;28;20206;-70
2021/01/09 12:19:28;;;;;;;26.07;11.47;;;3.40;99.90;;;;;;5014430;28;20213;-70
2021/01/09 12:21:55;;;;;;;26.53;13.20;;;3.40;99.90;;;;;;5014961;28;20266;-70
2021/01/09 12:24:22;;;;;;;26.17;13.17;;;3.40;99.90;;;;;;4975724;28;20208;-70
2021/01/09 12:26:51;;;;;;;27.37;13.00;;;3.50;99.90;;;;;;4975312;28;20291;-70
2021/01/09 12:29:18;;;;;;;25.57;11.70;;;3.50;99.90;;;;;;4975221;28;20578;-70
2021/01/09 12:31:44;;;;;;;26.40;11.60;;;3.60;99.90;;;;;;4973908;28;20264;-71
2021/01/09 12:34:12;;;;;;;19.93;10.23;;;3.70;99.90;;;;;;4975774;28;20651;-71
2021/01/09 12:36:39;;;;;;;21.60;11.13;;;3.80;99.90;;;;;;4975063;28;20235;-70
2021/01/09 12:39:06;;;;;;;24.67;12.13;;;3.90;99.90;;;;;;4975229;28;20196;-69
2021/01/09 12:41:34;;;;;;;21.10;10.10;;;3.90;99.90;;;;;;4994232;28;20620;-70
2021/01/09 12:44:01;;;;;;;18.60;9.63;;;3.90;99.90;;;;;;5011482;28;20207;-69
2021/01/09 12:46:35;;;;;;;19.67;9.53;;;4.00;99.90;;;;;;5014270;28;20227;-71